Time;durP1;ratioP1;P1;durP2;ratioP2;P2;SDS_P1;SDS_P2;PMS_P1;PMS_P2;Temp;Humidity;BMP_temperature;BMP_pressure;BME280_temperature;BME280_humidity;BME280_pressure;Samples;Min_cycle;Max_cycle;Signal;HPM_P1;HPM_P2
2023/06/17 00:02:03;;;;;;;9.73;5.38;;;18.80;99.90;;;;;;6226636;22;19999;-91
2023/06/17 00:04:29;;;;;;;13.32;5.88;;;18.70;99.90;;;;;;6226327;22;20008;-92
2023/06/17 00:06:55;;;;;;;8.82;5.57;;;18.70;99.90;;;;;;6226387;22;20000;-92
2023/06/17 00:09:22;;;;;;;6.45;5.15;;;18.80;99.90;;;;;;6226068;22;20015;-91
2023/06/17 00:11:49;;;;;;;10.82;5.13;;;18.70;99.90;;;;;;6227569;22;20011;-93
2023/06/17 00:14:16;;;;;;;8.73;4.93;;;18.70;99.90;;;;;;6221011;23;20091;-90
2023/06/17 00:16:43;;;;;;;7.45;5.03;;;18.70;99.90;;;;;;6221341;23;20035;-92
2023/06/17 00:19:15;;;;;;;8.82;5.55;;;18.70;99.90;;;;;;6221150;23;20008;-94
2023/06/17 00:21:49;;;;;;;10.57;5.72;;;18.60;99.90;;;;;;6221911;23;20004;-92
2023/06/17 00:24:17;;;;;;;10.05;5.85;;;18.60;99.90;;;;;;6221173;23;20388;-92
2023/06/17 00:26:43;;;;;;;12.13;5.20;;;18.60;99.90;;;;;;6221160;23;20084;-95
2023/06/17 00:29:09;;;;;;;17.35;5.82;;;18.70;99.90;;;;;;6221194;23;20066;-94
2023/06/17 00:31:36;;;;;;;12.85;6.30;;;18.70;99.90;;;;;;6221057;23;20000;-93
2023/06/17 00:34:06;;;;;;;8.70;5.03;;;18.70;99.90;;;;;;6221243;23;20020;-93
2023/06/17 00:36:32;;;;;;;9.93;5.00;;;18.70;99.90;;;;;;6221458;23;20087;-92
2023/06/17 00:38:59;;;;;;;9.75;5.53;;;18.70;99.90;;;;;;6221371;23;20016;-93
2023/06/17 00:41:25;;;;;;;11.35;5.63;;;18.60;99.90;;;;;;6221373;23;20004;-94
2023/06/17 00:43:52;;;;;;;9.73;5.68;;;18.60;99.90;;;;;;6220897;23;20004;-91
2023/06/17 00:46:33;;;;;;;9.77;4.45;;;18.60;99.90;;;;;;6221361;23;20430;-92
2023/06/17 00:49:01;;;;;;;9.27;5.75;;;18.60;99.90;;;;;;6221153;23;20054;-93
2023/06/17 00:51:28;;;;;;;7.68;4.93;;;18.60;99.90;;;;;;6221086;23;20011;-92
2023/06/17 00:53:55;;;;;;;10.90;5.22;;;18.60;99.90;;;;;;6221031;23;20550;-92
2023/06/17 00:56:25;;;;;;;8.85;5.40;;;18.60;99.90;;;;;;6221461;23;20001;-91
2023/06/17 00:58:54;;;;;;;8.82;5.78;;;18.60;99.90;;;;;;6220840;23;20059;-94
2023/06/17 01:01:21;;;;;;;17.48;5.57;;;18.60;99.90;;;;;;6221648;23;20079;-93
2023/06/17 01:03:49;;;;;;;7.90;4.95;;;18.60;99.90;;;;;;6221329;23;20480;-94
2023/06/17 01:06:33;;;;;;;7.20;5.20;;;18.70;99.90;;;;;;6221087;23;20009;-91
2023/06/17 01:09:06;;;;;;;14.57;5.72;;;18.60;99.90;;;;;;6220731;23;20433;-92
2023/06/17 01:11:39;;;;;;;14.88;5.05;;;18.70;99.90;;;;;;6221229;23;20079;-93
2023/06/17 01:14:10;;;;;;;14.07;4.97;;;18.70;99.90;;;;;;6200654;23;20020;-92
2023/06/17 01:16:41;;;;;;;10.32;5.00;;;18.70;99.90;;;;;;6215889;23;20024;-91
2023/06/17 01:19:18;;;;;;;20.05;5.20;;;18.70;99.90;;;;;;6215985;23;20008;-94
2023/06/17 01:21:48;;;;;;;12.18;5.05;;;18.70;99.90;;;;;;6191372;23;20012;-93
2023/06/17 01:24:29;;;;;;;8.85;4.95;;;18.80;99.90;;;;;;6190731;23;20012;-93
2023/06/17 01:27:02;;;;;;;9.05;5.60;;;18.70;99.90;;;;;;6215800;23;20028;-93
2023/06/17 01:29:30;;;;;;;12.60;5.43;;;18.80;99.90;;;;;;6217259;23;20044;-91
2023/06/17 01:31:57;;;;;;;13.38;6.43;;;18.80;99.90;;;;;;6192706;23;20070;-93
2023/06/17 01:34:57;;;;;;;15.80;5.38;;;18.80;99.90;;;;;;6192889;23;20012;-93
2023/06/17 01:37:42;;;;;;;9.75;4.20;;;18.70;99.90;;;;;;6193530;23;20039;-92
2023/06/17 01:40:13;;;;;;;11.15;4.85;;;18.70;99.90;;;;;;6192934;23;20024;-93
2023/06/17 01:42:50;;;;;;;10.15;5.00;;;18.70;99.90;;;;;;6218827;23;20009;-94
2023/06/17 01:45:19;;;;;;;9.40;4.70;;;18.60;99.90;;;;;;6217678;23;20016;-92
2023/06/17 01:47:46;;;;;;;6.32;4.15;;;18.50;99.90;;;;;;6192936;23;20020;-91
2023/06/17 01:50:18;;;;;;;11.27;4.90;;;18.50;99.90;;;;;;6192994;23;20075;-91
2023/06/17 01:52:46;;;;;;;11.30;5.25;;;18.50;99.90;;;;;;6217874;23;20017;-93
2023/06/17 01:55:13;;;;;;;13.23;5.18;;;18.50;99.90;;;;;;6192655;23;20004;-93
2023/06/17 01:57:40;;;;;;;11.27;5.90;;;18.40;99.90;;;;;;6217597;23;20004;-92
2023/06/17 02:00:07;;;;;;;11.75;4.72;;;18.50;99.90;;;;;;6192938;23;20059;-91
2023/06/17 02:02:35;;;;;;;9.73;4.75;;;18.50;99.90;;;;;;6217736;23;20020;-91
2023/06/17 02:05:02;;;;;;;11.55;4.95;;;18.50;99.90;;;;;;6192369;23;20007;-93
2023/06/17 02:07:30;;;;;;;9.90;4.60;;;18.50;99.90;;;;;;6192655;23;20022;-92
2023/06/17 02:09:57;;;;;;;12.55;4.68;;;18.50;99.90;;;;;;6192370;23;20062;-92
2023/06/17 02:12:25;;;;;;;7.40;4.95;;;18.50;99.90;;;;;;6217225;23;20012;-92
2023/06/17 02:14:54;;;;;;;6.65;4.07;;;18.40;99.90;;;;;;6221359;23;20465;-92
2023/06/17 02:17:23;;;;;;;11.43;4.68;;;18.50;99.90;;;;;;6222823;23;20011;-91
2023/06/17 02:19:50;;;;;;;9.20;4.75;;;18.40;99.90;;;;;;6222898;23;20054;-92
2023/06/17 02:22:16;;;;;;;9.25;4.22;;;18.40;99.90;;;;;;6222419;23;20082;-93
2023/06/17 02:24:43;;;;;;;13.93;4.72;;;18.40;99.90;;;;;;6222486;23;20004;-92
2023/06/17 02:27:09;;;;;;;8.55;5.05;;;18.40;99.90;;;;;;6222029;23;20012;-91
2023/06/17 02:29:36;;;;;;;10.15;5.20;;;18.40;99.90;;;;;;6222407;23;20004;-92
2023/06/17 02:32:03;;;;;;;7.10;4.28;;;18.50;99.90;;;;;;6223259;23;20422;-92
2023/06/17 02:34:29;;;;;;;8.00;4.40;;;18.50;99.90;;;;;;6222572;23;20389;-92
2023/06/17 02:36:56;;;;;;;10.95;4.82;;;18.50;99.90;;;;;;6222260;23;20008;-94
2023/06/17 02:39:23;;;;;;;18.17;4.68;;;18.50;99.90;;;;;;6222432;23;20015;-93
2023/06/17 02:41:50;;;;;;;14.15;4.45;;;18.50;99.90;;;;;;6221827;23;20011;-91
2023/06/17 02:44:16;;;;;;;12.90;4.20;;;18.50;99.90;;;;;;6222531;23;20004;-92
2023/06/17 02:46:42;;;;;;;19.00;4.50;;;18.50;99.90;;;;;;6224327;23;20350;-92
2023/06/17 02:49:16;;;;;;;8.98;5.03;;;18.50;99.90;;;;;;6222258;23;20012;-93
2023/06/17 02:51:43;;;;;;;8.35;4.45;;;18.50;99.90;;;;;;6222107;23;20091;-93
2023/06/17 02:54:10;;;;;;;9.20;4.80;;;18.50;99.90;;;;;;6222195;23;20095;-93
2023/06/17 02:56:37;;;;;;;17.80;4.63;;;18.50;99.90;;;;;;6222345;23;20011;-92
2023/06/17 02:59:03;;;;;;;11.65;4.32;;;18.40;99.90;;;;;;6222311;23;20047;-92
2023/06/17 03:01:31;;;;;;;6.43;4.57;;;18.40;99.90;;;;;;6222446;23;20083;-93
2023/06/17 03:04:03;;;;;;;8.80;4.13;;;18.40;99.90;;;;;;6221940;23;20390;-93
2023/06/17 03:06:34;;;;;;;8.63;4.15;;;18.40;99.90;;;;;;6222205;23;20008;-94
2023/06/17 03:09:03;;;;;;;5.80;4.40;;;18.40;99.90;;;;;;6222066;23;20012;-92
2023/06/17 03:11:31;;;;;;;9.75;4.40;;;18.30;99.90;;;;;;6222804;23;20011;-93
2023/06/17 03:14:29;;;;;;;;;;;;;;;;;;;;;
2023/06/17 03:17:03;;;;;;;7.78;4.32;;;18.30;99.90;;;;;;6217352;23;20004;-92
2023/06/17 03:19:46;;;;;;;10.90;4.72;;;18.30;99.90;;;;;;6240377;23;20056;-93
2023/06/17 03:22:35;;;;;;;8.95;4.95;;;18.30;99.90;;;;;;6240062;23;20099;-92
2023/06/17 03:28:18;;;;;;;8.18;4.45;;;18.30;99.90;;;;;;6214281;23;20019;-93
2023/06/17 03:53:31;;;;;;;7.43;4.30;;;18.30;99.90;;;;;;6279145;22;20106;-91
2023/06/17 03:56:22;;;;;;;10.02;4.47;;;18.30;99.90;;;;;;6229379;22;20007;-92
2023/06/17 08:42:51;;;;;;;20.10;19.00;;;27.20;99.90;;;;;;6161398;22;20080;-90
2023/06/17 08:45:19;;;;;;;20.30;19.20;;;26.90;99.90;;;;;;6227127;22;20003;-93
2023/06/17 08:47:46;;;;;;;19.80;18.80;;;26.80;99.90;;;;;;6225990;22;20003;-92
2023/06/17 08:50:17;;;;;;;20.40;19.30;;;26.70;99.90;;;;;;6226413;22;20008;-91
2023/06/17 08:52:46;;;;;;;20.08;19.08;;;26.80;99.90;;;;;;6221176;23;20012;-92
2023/06/17 08:55:13;;;;;;;19.65;18.65;;;26.60;99.90;;;;;;6195992;23;20011;-94
2023/06/17 08:58:02;;;;;;;19.92;18.90;;;26.60;99.90;;;;;;6195745;23;20012;-91
2023/06/17 09:00:38;;;;;;;20.33;18.92;;;26.80;99.90;;;;;;6195981;23;20427;-91
2023/06/17 09:03:12;;;;;;;19.80;18.80;;;26.20;99.90;;;;;;6212333;22;20073;-91
2023/06/17 09:05:38;;;;;;;19.50;18.45;;;26.10;99.90;;;;;;6251595;22;20074;-92
2023/06/17 09:08:05;;;;;;;19.60;18.60;;;26.20;99.90;;;;;;6226436;22;20004;-91
2023/06/17 09:10:43;;;;;;;20.10;18.90;;;25.90;99.90;;;;;;6250999;22;20082;-92
2023/06/17 09:13:10;;;;;;;20.20;18.90;;;26.40;99.90;;;;;;6251716;22;20471;-92
2023/06/17 09:52:35;;;;;;;21.65;20.35;;;26.20;99.90;;;;;;6200571;22;20043;-73
2023/06/17 09:55:10;;;;;;;21.20;20.02;;;26.10;99.90;;;;;;6186632;23;20013;-89
2023/06/17 09:57:39;;;;;;;21.00;19.80;;;25.90;99.90;;;;;;6138072;23;20005;-90
2023/06/17 10:00:11;;;;;;;20.42;19.33;;;25.90;99.90;;;;;;6137929;23;20036;-91
2023/06/17 10:02:39;;;;;;;20.85;19.48;;;25.70;99.90;;;;;;6132858;23;20050;-89
2023/06/17 10:05:10;;;;;;;21.35;19.90;;;25.70;99.90;;;;;;6108348;23;20001;-91
2023/06/17 10:07:41;;;;;;;20.15;19.05;;;25.60;99.90;;;;;;6132438;23;20010;-90
2023/06/17 10:10:10;;;;;;;21.05;19.75;;;25.60;99.90;;;;;;6108070;23;20006;-89
2023/06/17 10:12:43;;;;;;;21.25;20.02;;;25.60;99.90;;;;;;6108161;23;20016;-90
2023/06/17 10:15:13;;;;;;;21.70;20.40;;;25.40;99.90;;;;;;6108538;23;20009;-91
2023/06/17 10:17:44;;;;;;;21.05;19.85;;;25.30;99.90;;;;;;6108356;23;20017;-90
2023/06/17 10:20:13;;;;;;;20.40;19.30;;;25.30;99.90;;;;;;6107869;23;20017;-89
2023/06/17 10:22:40;;;;;;;20.58;19.48;;;25.50;99.90;;;;;;6107922;23;20014;-88
2023/06/17 10:25:09;;;;;;;20.70;19.40;;;25.20;99.90;;;;;;6107985;23;20391;-89
2023/06/17 10:27:37;;;;;;;20.40;19.10;;;25.50;99.90;;;;;;6107941;23;20001;-89
2023/06/17 10:30:24;;;;;;;20.52;18.77;;;25.40;99.90;;;;;;6108197;23;20020;-90
2023/06/17 10:33:01;;;;;;;20.27;18.65;;;25.50;99.90;;;;;;6108024;23;20017;-90
2023/06/17 10:35:41;;;;;;;19.73;18.52;;;25.50;99.90;;;;;;6108293;23;20009;-90
2023/06/17 10:38:10;;;;;;;20.02;18.83;;;25.70;99.90;;;;;;6108381;23;20037;-89
2023/06/17 10:41:03;;;;;;;19.65;18.45;;;25.70;99.90;;;;;;6108173;23;20431;-90
2023/06/17 10:43:37;;;;;;;20.00;18.90;;;25.30;99.90;;;;;;6107421;23;20013;-90
2023/06/17 10:46:11;;;;;;;19.52;18.20;;;25.30;99.90;;;;;;6108506;23;20056;-90
2023/06/17 10:48:37;;;;;;;19.27;18.08;;;25.50;99.90;;;;;;6132737;23;20014;-89
2023/06/17 10:51:09;;;;;;;19.48;18.38;;;25.50;99.90;;;;;;6107831;23;20032;-89
2023/06/17 10:53:37;;;;;;;19.63;18.27;;;25.50;99.90;;;;;;6117832;23;20024;-89
2023/06/17 10:56:06;;;;;;;19.05;17.95;;;25.40;99.90;;;;;;6132717;23;20509;-88
2023/06/17 10:58:43;;;;;;;19.63;18.42;;;25.30;99.90;;;;;;6134321;23;20016;-92
2023/06/17 11:01:11;;;;;;;19.60;18.48;;;25.40;99.90;;;;;;6132229;23;20009;-92
2023/06/17 11:03:38;;;;;;;19.90;18.70;;;25.50;99.90;;;;;;6132473;23;20017;-92
2023/06/17 11:06:07;;;;;;;18.85;17.85;;;25.70;99.90;;;;;;6133033;23;20335;-91
2023/06/17 11:08:37;;;;;;;19.10;18.08;;;25.70;99.90;;;;;;6132661;23;20014;-92
2023/06/17 11:11:15;;;;;;;19.65;18.23;;;25.60;99.90;;;;;;6132185;23;20009;-91
2023/06/17 11:13:44;;;;;;;19.45;18.35;;;25.50;99.90;;;;;;6133571;23;20049;-91
2023/06/17 11:16:11;;;;;;;20.00;18.80;;;25.90;99.90;;;;;;6132449;23;20025;-92
2023/06/17 11:18:44;;;;;;;19.70;18.60;;;25.80;99.90;;;;;;6156362;23;20010;-90
2023/06/17 11:21:11;;;;;;;18.65;17.55;;;25.70;99.90;;;;;;6132612;23;20009;-91
2023/06/17 11:23:40;;;;;;;18.58;17.48;;;25.50;99.90;;;;;;6133951;23;20009;-93
2023/06/17 11:26:08;;;;;;;18.45;17.35;;;25.30;99.90;;;;;;6132005;23;20006;-91
2023/06/17 11:28:35;;;;;;;18.83;17.83;;;25.30;99.90;;;;;;6131543;23;20018;-93
2023/06/17 11:31:02;;;;;;;18.40;17.40;;;25.40;99.90;;;;;;6132452;23;20013;-92
2023/06/17 11:33:36;;;;;;;18.17;17.17;;;25.50;99.90;;;;;;6131788;23;20029;-92
2023/06/17 11:36:08;;;;;;;18.75;17.65;;;25.30;99.90;;;;;;6131935;23;20006;-91
2023/06/17 11:38:35;;;;;;;18.80;17.80;;;24.90;99.90;;;;;;6156624;23;20039;-91
2023/06/17 11:41:27;;;;;;;18.67;17.50;;;24.70;99.90;;;;;;6132070;23;20064;-92
2023/06/17 11:43:54;;;;;;;18.55;17.25;;;24.60;99.90;;;;;;6171969;23;20051;-91
2023/06/17 11:46:27;;;;;;;18.23;17.23;;;24.40;99.90;;;;;;6169304;23;20087;-92
2023/06/17 11:49:20;;;;;;;18.85;17.60;;;24.50;99.90;;;;;;6177880;22;20016;-92
2023/06/17 11:51:49;;;;;;;18.77;17.77;;;24.60;99.90;;;;;;6078449;23;20026;-92
2023/06/17 11:54:26;;;;;;;18.58;17.58;;;24.60;99.90;;;;;;6052012;23;20014;-92
2023/06/17 11:56:56;;;;;;;18.73;17.38;;;24.70;99.90;;;;;;6073180;23;20010;-92
2023/06/17 11:59:43;;;;;;;18.85;17.80;;;24.90;99.90;;;;;;6049011;23;20010;-92
2023/06/17 12:02:31;;;;;;;;;;;;;;;;;;;;;
2023/06/17 12:10:09;;;;;;;18.65;17.65;;;24.60;99.90;;;;;;6052382;23;20011;-93
2023/06/17 12:13:13;;;;;;;19.13;17.92;;;24.70;99.90;;;;;;6046887;23;20011;-92
2023/06/17 12:37:14;;;;;;;19.63;18.52;;;25.10;99.90;;;;;;6189336;22;20016;-93
2023/06/17 12:39:41;;;;;;;19.73;18.63;;;25.00;99.90;;;;;;6196789;23;20437;-92
2023/06/17 12:42:53;;;;;;;;;;;;;;;;;;;;;
2023/06/17 12:49:28;;;;;;;20.60;19.23;;;24.90;99.90;;;;;;6043485;23;20011;-92
2023/06/17 12:52:14;;;;;;;;;;;24.80;99.90;;;;;;5988339;23;20007;-92
2023/06/17 12:54:56;;;;;;;20.13;18.80;;;24.70;99.90;;;;;;6026298;23;19906;-93
2023/06/17 12:58:10;;;;;;;19.70;18.50;;;24.50;99.90;;;;;;6019608;23;20090;-93
2023/06/17 13:19:56;;;;;;;19.55;18.30;;;24.70;99.90;;;;;;6180666;22;20082;-93
2023/06/17 13:22:26;;;;;;;19.42;18.35;;;24.70;99.90;;;;;;6202172;23;20414;-92
2023/06/17 13:25:05;;;;;;;19.38;18.17;;;24.70;99.90;;;;;;6169668;23;20020;-91
2023/06/17 13:27:32;;;;;;;19.27;17.85;;;24.70;99.90;;;;;;6199880;23;19988;-93
2023/06/17 13:30:25;;;;;;;19.90;18.40;;;24.80;99.90;;;;;;6201767;23;20024;-93
2023/06/17 13:32:54;;;;;;;18.80;17.70;;;24.80;99.90;;;;;;6166545;23;20008;-92
2023/06/17 13:35:21;;;;;;;18.83;17.63;;;24.70;99.90;;;;;;6166452;23;20004;-92
2023/06/17 13:37:50;;;;;;;19.10;18.00;;;24.80;99.90;;;;;;6190951;23;20000;-91
2023/06/17 13:40:16;;;;;;;19.60;18.30;;;24.90;99.90;;;;;;6190697;23;20036;-91
2023/06/17 13:42:43;;;;;;;19.02;17.73;;;24.80;99.90;;;;;;6190647;23;20012;-91
2023/06/17 13:45:10;;;;;;;18.80;17.70;;;24.60;99.90;;;;;;6190359;23;20099;-92
2023/06/17 13:47:38;;;;;;;18.77;17.67;;;24.50;99.90;;;;;;6191231;23;20059;-92
2023/06/17 13:50:28;;;;;;;18.73;17.63;;;24.70;99.90;;;;;;6190599;23;20030;-92
2023/06/17 13:52:55;;;;;;;19.02;17.73;;;24.80;99.90;;;;;;6164671;23;20009;-92
2023/06/17 13:55:31;;;;;;;;;;;;;;;;;;;;;
2023/06/17 13:57:59;;;;;;;18.30;17.20;;;24.90;99.90;;;;;;6191079;23;20023;-93
2023/06/17 14:00:46;;;;;;;;;;;;;;;;;;;;;
2023/06/17 14:03:38;;;;;;;19.63;18.23;;;24.80;99.90;;;;;;6190623;23;20013;-92
2023/06/17 14:06:07;;;;;;;19.70;18.50;;;24.80;99.90;;;;;;6182385;23;20058;-92
2023/06/17 14:11:25;;;;;;;19.77;18.38;;;24.50;99.90;;;;;;6246023;23;20074;-91
2023/06/17 14:13:51;;;;;;;19.60;18.30;;;24.60;99.90;;;;;;6190620;23;20013;-93
2023/06/17 14:47:42;;;;;;;;;;;;;;;;;;;;;
2023/06/17 14:59:34;;;;;;;20.63;19.13;;;24.60;99.90;;;;;;6192582;22;20028;-93
2023/06/17 15:02:48;;;;;;;20.10;18.83;;;24.50;99.90;;;;;;6170991;23;20501;-91
2023/06/17 15:07:51;;;;;;;20.17;18.98;;;24.70;99.90;;;;;;6215668;23;20083;-92
2023/06/17 15:10:20;;;;;;;20.55;19.27;;;24.90;99.90;;;;;;6168036;23;20335;-92
2023/06/17 15:16:03;;;;;;;21.15;19.50;;;24.90;99.90;;;;;;6096756;23;20506;-91
2023/06/17 15:18:36;;;;;;;20.50;19.23;;;24.70;99.90;;;;;;6137482;23;20009;-92
2023/06/17 15:21:03;;;;;;;19.63;18.25;;;24.80;99.90;;;;;;6137094;23;20095;-94
2023/06/17 15:23:29;;;;;;;20.30;18.77;;;24.80;99.90;;;;;;6137712;23;20005;-91
2023/06/17 15:25:56;;;;;;;20.42;18.90;;;24.70;99.90;;;;;;6137421;23;20088;-91
2023/06/17 15:32:00;;;;;;;19.75;18.13;;;24.70;99.90;;;;;;6245979;22;20016;-92
2023/06/17 15:40:53;;;;;;;20.10;18.65;;;24.70;99.90;;;;;;6234746;23;20299;-93
2023/06/17 15:47:30;;;;;;;21.02;19.52;;;24.60;99.90;;;;;;6247379;23;20024;-92
2023/06/17 16:20:14;;;;;;;21.98;20.40;;;24.30;99.90;;;;;;6181605;23;20086;-92
2023/06/17 16:25:23;;;;;;;22.02;20.42;;;24.40;99.90;;;;;;6070575;23;20122;-92
2023/06/17 16:27:49;;;;;;;22.38;20.60;;;24.30;99.90;;;;;;6221034;23;20019;-92
2023/06/17 16:30:18;;;;;;;21.35;19.85;;;24.20;99.90;;;;;;6197595;23;20008;-92
2023/06/17 16:32:45;;;;;;;21.90;20.17;;;24.10;99.90;;;;;;6196959;23;20004;-92
2023/06/17 16:35:12;;;;;;;21.10;19.55;;;24.10;99.90;;;;;;6196662;23;20012;-93
2023/06/17 17:10:02;;;;;;;20.45;19.05;;;23.60;99.90;;;;;;6141126;23;20043;-93
2023/06/17 17:12:52;;;;;;;20.73;19.33;;;23.40;99.90;;;;;;6098603;23;20010;-92
2023/06/17 17:15:21;;;;;;;20.67;18.95;;;23.30;99.90;;;;;;6098391;23;20010;-91
2023/06/17 17:17:48;;;;;;;20.73;19.10;;;23.30;99.90;;;;;;6131409;23;20013;-92
2023/06/17 17:20:15;;;;;;;20.40;19.00;;;23.30;99.90;;;;;;6186353;23;20009;-92
2023/06/17 17:22:42;;;;;;;20.42;18.90;;;23.30;99.90;;;;;;6186692;23;20036;-92
2023/06/17 17:25:15;;;;;;;21.50;19.92;;;23.30;99.90;;;;;;6185666;23;20009;-93
2023/06/17 17:27:53;;;;;;;21.10;19.30;;;23.30;99.90;;;;;;6186359;23;20076;-94
2023/06/17 17:30:32;;;;;;;20.50;18.92;;;23.30;99.90;;;;;;6186679;23;20013;-94
2023/06/17 17:33:14;;;;;;;20.08;18.73;;;23.30;99.90;;;;;;6161171;23;20032;-91
2023/06/17 17:35:41;;;;;;;20.25;18.30;;;23.20;99.90;;;;;;6185743;23;20013;-93
2023/06/17 17:38:08;;;;;;;21.02;19.42;;;23.10;99.90;;;;;;6161497;23;20030;-93
2023/06/17 17:40:34;;;;;;;21.08;19.23;;;23.10;99.90;;;;;;6160589;23;20013;-93
2023/06/17 17:43:01;;;;;;;26.05;19.20;;;23.00;99.90;;;;;;6160805;23;20013;-92
2023/06/17 17:45:31;;;;;;;20.55;18.58;;;22.90;99.90;;;;;;6161114;23;20012;-93
2023/06/17 17:48:08;;;;;;;20.77;19.02;;;22.90;99.90;;;;;;6186107;23;20077;-93
2023/06/17 17:50:37;;;;;;;20.25;18.55;;;22.90;99.90;;;;;;6160973;23;20434;-92
2023/06/17 17:53:04;;;;;;;20.38;18.60;;;22.80;99.90;;;;;;6160874;23;20025;-91
2023/06/17 17:55:33;;;;;;;20.00;18.10;;;22.80;99.90;;;;;;6185589;23;20009;-93
2023/06/17 17:58:25;;;;;;;19.92;18.00;;;22.80;99.90;;;;;;6186378;23;20084;-92
2023/06/17 18:01:01;;;;;;;20.25;18.58;;;22.80;99.90;;;;;;6160786;23;20019;-92
2023/06/17 18:03:31;;;;;;;19.85;18.35;;;22.80;99.90;;;;;;6186763;23;20470;-92
2023/06/17 18:06:00;;;;;;;19.35;17.77;;;22.70;99.90;;;;;;6161859;23;20092;-92
2023/06/17 18:08:34;;;;;;;18.73;17.17;;;22.70;99.90;;;;;;6184205;23;20009;-93
2023/06/17 18:11:13;;;;;;;19.83;17.73;;;22.60;99.90;;;;;;6180078;23;20017;-92
2023/06/17 18:13:47;;;;;;;19.58;17.67;;;22.60;99.90;;;;;;6159329;23;20056;-92
2023/06/17 18:16:13;;;;;;;;;;;22.50;99.90;;;;;;6182889;23;20016;-92
2023/06/17 18:18:50;;;;;;;;;;;;;;;;;;;;;
2023/06/17 18:25:04;;;;;;;19.42;17.63;;;22.30;99.90;;;;;;6219008;23;20076;-92
2023/06/17 18:32:04;;;;;;;17.92;16.58;;;22.10;99.90;;;;;;6190022;23;20024;-93
2023/06/17 18:34:40;;;;;;;18.65;17.15;;;22.10;99.90;;;;;;6198145;23;20020;-92
2023/06/17 18:37:06;;;;;;;18.30;16.90;;;22.10;99.90;;;;;;6198048;23;20035;-92
2023/06/17 18:39:33;;;;;;;18.30;17.00;;;22.10;99.90;;;;;;6197466;23;20008;-93
2023/06/17 18:42:01;;;;;;;17.85;16.70;;;22.10;99.90;;;;;;6198316;23;20011;-91
2023/06/17 18:44:28;;;;;;;19.52;17.90;;;22.10;99.90;;;;;;6197283;23;20333;-92
2023/06/17 18:46:55;;;;;;;17.55;16.35;;;22.10;99.90;;;;;;6196932;23;20015;-93
2023/06/17 18:49:24;;;;;;;18.75;17.17;;;22.00;99.90;;;;;;6197479;23;20004;-92
2023/06/17 18:51:51;;;;;;;19.83;17.88;;;22.00;99.90;;;;;;6197272;23;20007;-94
2023/06/17 18:54:17;;;;;;;19.33;17.77;;;21.90;99.90;;;;;;6196835;23;20464;-92
2023/06/17 18:56:45;;;;;;;20.08;18.35;;;21.90;99.90;;;;;;6197059;23;20004;-91
2023/06/17 18:59:11;;;;;;;20.23;18.52;;;21.90;99.90;;;;;;6197006;23;20008;-91
2023/06/17 19:01:37;;;;;;;20.05;18.42;;;21.80;99.90;;;;;;6196580;23;20012;-92
2023/06/17 19:04:04;;;;;;;20.27;18.80;;;21.80;99.90;;;;;;6197084;23;20008;-92
2023/06/17 19:06:31;;;;;;;21.40;19.60;;;21.80;99.90;;;;;;6197289;23;20004;-91
2023/06/17 19:08:57;;;;;;;22.20;20.35;;;21.70;99.90;;;;;;6198095;23;20008;-91
2023/06/17 19:11:24;;;;;;;22.85;21.15;;;21.70;99.90;;;;;;6197171;23;20004;-91
2023/06/17 19:13:50;;;;;;;22.55;20.42;;;21.60;99.90;;;;;;6197001;23;20020;-93
2023/06/17 19:16:18;;;;;;;23.33;21.33;;;21.60;99.90;;;;;;6197081;23;20425;-92
2023/06/17 19:18:45;;;;;;;22.95;21.00;;;21.50;99.90;;;;;;6196918;23;20012;-92
2023/06/17 19:21:12;;;;;;;22.38;20.58;;;21.50;99.90;;;;;;6196382;23;20004;-92
2023/06/17 19:23:38;;;;;;;21.35;19.55;;;21.50;99.90;;;;;;6196470;23;20059;-91
2023/06/17 19:26:04;;;;;;;21.10;19.35;;;21.40;99.90;;;;;;6196656;23;20062;-91
